createdAt,value
2018-01-18T00:01:54.625Z,99713.31
2018-01-18T00:04:23.510Z,99721.77
2018-01-18T00:06:50.904Z,99718.88
2018-01-18T00:09:18.289Z,99706.61
2018-01-18T00:11:48.455Z,99704.59
2018-01-18T00:14:18.970Z,99700.66
2018-01-18T00:16:46.987Z,99704.03
2018-01-18T00:19:14.265Z,99695.98
2018-01-18T00:21:41.201Z,99706.32
2018-01-18T00:24:09.037Z,99710.44
2018-01-18T00:26:35.875Z,99693.36
2018-01-18T00:29:02.717Z,99694.18
2018-01-18T00:31:30.077Z,99683.91
2018-01-18T00:33:56.995Z,99693.73
2018-01-18T00:36:23.835Z,99668.25
2018-01-18T00:38:50.738Z,99664.86
2018-01-18T00:41:17.619Z,99652.98
2018-01-18T00:43:44.520Z,99644.33
2018-01-18T00:46:11.401Z,99649.94
2018-01-18T00:48:38.244Z,99654.66
2018-01-18T00:51:05.182Z,99651.58
2018-01-18T00:53:32.818Z,99647.75
2018-01-18T00:55:59.726Z,99644.64
2018-01-18T00:58:26.609Z,99644.09
2018-01-18T01:00:53.512Z,99628.77
2018-01-18T01:03:20.484Z,99614.86
2018-01-18T01:05:47.454Z,99614.84
2018-01-18T01:08:14.320Z,99610.20
2018-01-18T01:10:41.230Z,99606.05
2018-01-18T01:13:09.759Z,99589.23
2018-01-18T01:15:36.663Z,99577.25
2018-01-18T01:18:04.366Z,99574.03
2018-01-18T01:20:31.209Z,99567.44
2018-01-18T01:22:58.881Z,99556.52
2018-01-18T01:25:25.822Z,99545.47
2018-01-18T01:27:52.780Z,99541.88
2018-01-18T01:30:19.716Z,99537.38
2018-01-18T01:32:46.636Z,99533.69
2018-01-18T01:35:14.231Z,99530.83
2018-01-18T01:37:41.121Z,99539.88
2018-01-18T01:40:08.043Z,99544.95
2018-01-18T01:42:35.703Z,99542.32
2018-01-18T01:45:02.671Z,99542.24
2018-01-18T01:47:31.349Z,99534.66
2018-01-18T01:49:58.582Z,99522.63
2018-01-18T01:52:27.870Z,99511.22
2018-01-18T01:54:55.799Z,99499.63
2018-01-18T01:57:23.209Z,99487.52
2018-01-18T01:59:51.450Z,99479.94
2018-01-18T02:02:18.944Z,99462.44
2018-01-18T02:04:46.250Z,99454.72
2018-01-18T02:07:13.438Z,99451.94
2018-01-18T02:09:41.719Z,99442.11
2018-01-18T02:12:12.201Z,99440.59
2018-01-18T02:14:40.362Z,99436.53
2018-01-18T02:17:13.176Z,99437.39
2018-01-18T02:19:41.200Z,99436.24
2018-01-18T02:22:09.839Z,99404.49
2018-01-18T02:24:37.363Z,99406.13
2018-01-18T02:27:04.606Z,99407.98
2018-01-18T02:29:32.429Z,99387.49
2018-01-18T02:31:59.658Z,99372.52
2018-01-18T02:34:26.744Z,99371.05
2018-01-18T02:36:53.930Z,99348.10
2018-01-18T02:39:21.030Z,99340.79
2018-01-18T02:41:48.000Z,99330.16
2018-01-18T02:44:16.901Z,99325.13
2018-01-18T02:46:46.753Z,99325.72
2018-01-18T02:49:15.146Z,99321.20
2018-01-18T02:51:44.205Z,99309.06
2018-01-18T02:54:12.320Z,99288.70
2018-01-18T02:56:40.594Z,99293.56
2018-01-18T02:59:08.762Z,99278.82
2018-01-18T03:01:36.163Z,99273.61
2018-01-18T03:04:03.195Z,99259.23
2018-01-18T03:06:30.726Z,99256.02
2018-01-18T03:08:57.542Z,99248.11
2018-01-18T03:11:24.303Z,99238.42
2018-01-18T03:13:51.091Z,99233.87
2018-01-18T03:16:17.930Z,99224.47
2018-01-18T03:18:44.762Z,99201.73
2018-01-18T03:21:12.333Z,99196.09
2018-01-18T03:23:39.858Z,99178.77
2018-01-18T03:26:06.671Z,99154.80
2018-01-18T03:28:34.266Z,99158.38
2018-01-18T03:31:01.794Z,99150.97
2018-01-18T03:33:28.581Z,99141.30
2018-01-18T03:35:55.391Z,99129.97
2018-01-18T03:38:22.191Z,99121.67
2018-01-18T03:40:49.007Z,99111.39
2018-01-18T03:43:15.794Z,99100.08
2018-01-18T03:45:42.614Z,99088.09
2018-01-18T03:48:09.481Z,99074.91
2018-01-18T03:50:36.352Z,99056.91
2018-01-18T03:53:03.190Z,99031.63
2018-01-18T03:55:30.043Z,99015.52
2018-01-18T03:57:57.746Z,98979.04
2018-01-18T04:00:24.621Z,98962.25
2018-01-18T04:02:51.567Z,98955.63
2018-01-18T04:05:18.503Z,98933.18
2018-01-18T04:07:46.244Z,98914.11
2018-01-18T04:10:13.170Z,98902.69
2018-01-18T04:12:40.105Z,98882.56
2018-01-18T04:15:07.885Z,98866.67
2018-01-18T04:17:34.777Z,98855.98
2018-01-18T04:20:01.799Z,98839.48
2018-01-18T04:22:28.661Z,98828.99
2018-01-18T04:24:55.523Z,98824.80
2018-01-18T04:27:22.461Z,98806.73
2018-01-18T04:29:49.406Z,98791.17
2018-01-18T04:32:16.360Z,98774.42
2018-01-18T04:34:43.338Z,98765.94
2018-01-18T04:37:10.276Z,98751.12
2018-01-18T04:39:37.206Z,98736.13
2018-01-18T04:42:04.342Z,98723.31
2018-01-18T04:44:31.303Z,98707.27
2018-01-18T04:46:58.300Z,98698.00
2018-01-18T04:49:25.607Z,98681.48
2018-01-18T04:51:52.442Z,98663.27
2018-01-18T04:54:19.312Z,98627.52
2018-01-18T04:56:47.364Z,98626.81
2018-01-18T04:59:17.649Z,98621.05
2018-01-18T05:04:27.341Z,98560.87
2018-01-18T05:06:58.649Z,98559.29
2018-01-18T05:09:29.396Z,98552.83
2018-01-18T05:11:58.832Z,98555.61
2018-01-18T05:14:25.991Z,98529.45
2018-01-18T05:16:53.258Z,98533.92
2018-01-18T05:19:20.452Z,98540.69
2018-01-18T05:24:42.882Z,98529.98
2018-01-18T05:27:09.660Z,98514.42
2018-01-18T05:29:36.524Z,98490.92
2018-01-18T05:32:03.331Z,98473.33
2018-01-18T05:34:30.139Z,98452.44
2018-01-18T05:36:56.995Z,98471.33
2018-01-18T05:39:23.803Z,98441.83
2018-01-18T05:41:51.069Z,98426.30
2018-01-18T05:44:18.256Z,98403.45
2018-01-18T05:46:45.222Z,98405.06
2018-01-18T05:49:12.280Z,98377.77
2018-01-18T05:51:39.935Z,98373.03
2018-01-18T05:54:07.074Z,98378.00
2018-01-18T05:56:34.354Z,98372.48
2018-01-18T05:59:01.495Z,98369.55
2018-01-18T06:01:28.688Z,98347.73
2018-01-18T06:03:57.742Z,98347.17
2018-01-18T06:06:24.990Z,98339.63
2018-01-18T06:08:52.114Z,98346.52
2018-01-18T06:11:19.168Z,98330.57
2018-01-18T06:13:46.269Z,98299.14
2018-01-18T06:16:13.227Z,98303.26
2018-01-18T06:18:40.109Z,98281.68
2018-01-18T06:21:07.163Z,98291.75
2018-01-18T06:23:34.056Z,98243.84
2018-01-18T06:26:00.885Z,98237.91
2018-01-18T06:28:27.780Z,98212.59
2018-01-18T06:30:54.732Z,98200.16
2018-01-18T06:33:21.638Z,98220.31
2018-01-18T06:35:48.545Z,98202.55
2018-01-18T06:38:15.390Z,98182.23
2018-01-18T06:40:42.203Z,98200.16
2018-01-18T06:43:09.099Z,98166.47
2018-01-18T06:45:36.252Z,98166.09
2018-01-18T06:48:11.625Z,98160.97
2018-01-18T06:50:40.692Z,98155.23
2018-01-18T06:53:09.107Z,98148.53
2018-01-18T06:55:36.486Z,98180.78
2018-01-18T06:58:05.016Z,98151.80
2018-01-18T07:00:35.131Z,98175.01
2018-01-18T07:03:04.789Z,98140.13
2018-01-18T07:05:38.396Z,98155.66
2018-01-18T07:29:06.817Z,98054.94
2018-01-18T07:31:35.423Z,98043.34
2018-01-18T07:34:04.870Z,98033.63
2018-01-18T07:36:36.544Z,98049.27
2018-01-18T08:00:07.223Z,97996.14
2018-01-18T08:02:34.054Z,97986.63
2018-01-18T08:05:00.936Z,98002.30
2018-01-18T08:07:28.053Z,97985.14
2018-01-18T08:09:54.885Z,97985.51
2018-01-18T08:12:21.658Z,97971.05
2018-01-18T08:14:48.485Z,97963.16
2018-01-18T08:17:15.315Z,97974.55
2018-01-18T08:19:42.968Z,97947.00
2018-01-18T08:22:09.764Z,97953.00
2018-01-18T08:24:36.694Z,97938.66
2018-01-18T08:27:03.517Z,97951.58
2018-01-18T08:29:30.354Z,97950.09
2018-01-18T08:31:57.142Z,97954.34
2018-01-18T08:34:24.028Z,97928.95
2018-01-18T08:36:50.897Z,97915.83
2018-01-18T08:39:18.527Z,97899.07
2018-01-18T08:41:45.392Z,97897.09
2018-01-18T08:44:12.204Z,97869.23
2018-01-18T08:46:39.051Z,97871.19
2018-01-18T08:49:05.954Z,97886.63
2018-01-18T08:51:32.747Z,97871.03
2018-01-18T08:53:59.607Z,97867.86
2018-01-18T08:56:26.418Z,97869.41
2018-01-18T08:58:53.994Z,97866.22
2018-01-18T09:01:21.565Z,97866.59
2018-01-18T09:03:48.347Z,97855.76
2018-01-18T09:06:15.192Z,97855.97
2018-01-18T09:08:42.753Z,97846.66
2018-01-18T09:11:09.635Z,97849.91
2018-01-18T09:13:37.170Z,97839.03
2018-01-18T09:16:03.965Z,97826.56
2018-01-18T09:18:30.752Z,97856.96
2018-01-18T09:20:57.570Z,97861.59
2018-01-18T09:23:24.480Z,97881.73
2018-01-18T09:25:51.281Z,97914.33
2018-01-18T09:28:18.094Z,97890.00
2018-01-18T09:30:44.877Z,97909.82
2018-01-18T09:33:11.710Z,97936.25
2018-01-18T09:35:38.549Z,97900.70
2018-01-18T09:38:06.073Z,97908.29
2018-01-18T09:40:32.890Z,97962.92
2018-01-18T09:43:00.441Z,97938.41
2018-01-18T09:45:27.280Z,97955.12
2018-01-18T09:47:54.161Z,97950.23
2018-01-18T09:50:21.025Z,97961.16
2018-01-18T09:52:47.835Z,97955.41
2018-01-18T09:55:14.621Z,98014.23
2018-01-18T09:57:41.403Z,97997.56
2018-01-18T10:00:08.229Z,98015.80
2018-01-18T10:02:35.038Z,98050.66
2018-01-18T10:05:01.875Z,98032.79
2018-01-18T10:07:28.657Z,98056.28
2018-01-18T10:09:55.446Z,98040.45
2018-01-18T10:12:23.001Z,98050.40
2018-01-18T10:14:49.838Z,98064.20
2018-01-18T10:17:16.701Z,98087.96
2018-01-18T10:19:43.510Z,98086.83
2018-01-18T10:22:10.322Z,98095.54
2018-01-18T10:24:37.131Z,98108.16
2018-01-18T10:27:03.931Z,98143.97
2018-01-18T10:29:30.747Z,98147.02
2018-01-18T10:31:57.537Z,98135.21
2018-01-18T10:34:24.394Z,98237.12
2018-01-18T10:36:51.229Z,98187.80
2018-01-18T10:39:18.186Z,98190.66
2018-01-18T10:41:45.779Z,98172.78
2018-01-18T10:44:12.573Z,98252.64
2018-01-18T10:46:39.377Z,98204.30
2018-01-18T10:49:06.921Z,98243.51
2018-01-18T10:51:33.765Z,98266.81
2018-01-18T10:54:00.616Z,98270.80
2018-01-18T10:56:27.432Z,98283.59
2018-01-18T10:58:55.019Z,98336.84
2018-01-18T11:01:21.831Z,98317.98
2018-01-18T11:03:48.657Z,98327.52
2018-01-18T11:06:15.480Z,98354.23
2018-01-18T11:08:42.343Z,98357.02
2018-01-18T11:11:11.332Z,98374.17
2018-01-18T11:13:39.048Z,98377.23
2018-01-18T11:16:05.858Z,98401.45
2018-01-18T11:18:32.700Z,98394.82
2018-01-18T11:20:59.559Z,98411.03
2018-01-18T11:23:27.670Z,98453.36
2018-01-18T11:25:54.471Z,98427.00
2018-01-18T11:28:22.033Z,98436.16
2018-01-18T11:30:48.864Z,98440.48
2018-01-18T11:33:15.724Z,98464.06
2018-01-18T11:35:42.555Z,98481.40
2018-01-18T11:38:09.347Z,98500.23
2018-01-18T11:40:37.064Z,98513.94
2018-01-18T11:43:04.028Z,98527.48
2018-01-18T11:45:30.837Z,98545.96
2018-01-18T11:47:58.483Z,98542.45
2018-01-18T11:50:26.047Z,98558.55
2018-01-18T11:52:52.903Z,98558.31
2018-01-18T11:55:19.740Z,98568.23
2018-01-18T11:57:46.555Z,98616.23
2018-01-18T12:00:13.370Z,98603.95
2018-01-18T12:02:40.188Z,98596.55
2018-01-18T12:05:07.004Z,98632.97
2018-01-18T12:07:33.905Z,98645.84
2018-01-18T12:10:00.706Z,98673.80
2018-01-18T12:12:27.511Z,98653.26
2018-01-18T12:14:55.188Z,98676.16
2018-01-18T12:17:22.729Z,98683.24
2018-01-18T12:19:49.509Z,98695.30
2018-01-18T12:22:16.289Z,98700.19
2018-01-18T12:24:43.084Z,98718.88
2018-01-18T12:27:09.837Z,98728.05
2018-01-18T12:29:36.617Z,98735.14
2018-01-18T12:32:03.419Z,98740.95
2018-01-18T12:34:31.008Z,98749.10
2018-01-18T12:36:57.814Z,98760.16
2018-01-18T12:39:24.621Z,98757.68
2018-01-18T12:41:52.125Z,98790.91
2018-01-18T12:44:18.925Z,98781.84
2018-01-18T12:46:45.980Z,98804.17
2018-01-18T12:49:14.862Z,98816.00
2018-01-18T12:51:41.647Z,98815.89
2018-01-18T12:54:08.458Z,98822.66
2018-01-18T12:56:35.268Z,98843.70
2018-01-18T12:59:02.081Z,98844.59
2018-01-18T13:01:28.904Z,98841.02
2018-01-18T13:03:55.714Z,98853.77
2018-01-18T13:06:22.484Z,98865.84
2018-01-18T13:08:49.274Z,98876.23
2018-01-18T13:11:16.025Z,98869.58
2018-01-18T13:13:42.839Z,98886.44
2018-01-18T13:16:09.625Z,98893.42
2018-01-18T13:18:36.422Z,98886.55
2018-01-18T13:21:03.289Z,98880.13
2018-01-18T13:23:30.066Z,98894.16
2018-01-18T13:25:56.899Z,98904.16
2018-01-18T13:28:24.206Z,98895.02
2018-01-18T13:30:51.467Z,98925.13
2018-01-18T13:33:18.311Z,98947.91
2018-01-18T13:35:45.184Z,98949.94
2018-01-18T13:38:12.709Z,98962.30
2018-01-18T13:40:39.473Z,98975.97
2018-01-18T13:43:06.238Z,98980.46
2018-01-18T13:45:33.003Z,98985.45
2018-01-18T13:47:59.805Z,99002.39
2018-01-18T13:50:27.324Z,99014.78
2018-01-18T13:52:54.132Z,99013.12
2018-01-18T13:55:21.666Z,99029.62
2018-01-18T13:57:48.446Z,99018.98
2018-01-18T14:00:15.322Z,99027.08
2018-01-18T14:02:42.100Z,99031.92
2018-01-18T14:05:09.635Z,99033.69
2018-01-18T14:07:36.434Z,99035.82
2018-01-18T14:10:03.966Z,99032.94
2018-01-18T14:12:30.800Z,99036.74
2018-01-18T14:14:57.648Z,99036.25
2018-01-18T14:17:24.502Z,99046.38
2018-01-18T14:19:52.048Z,99044.41
2018-01-18T14:22:18.804Z,99052.59
2018-01-18T14:24:45.562Z,99063.18
2018-01-18T14:27:12.368Z,99059.25
2018-01-18T14:29:39.098Z,99056.66
2018-01-18T14:32:05.897Z,99068.36
2018-01-18T14:34:32.704Z,99074.41
2018-01-18T14:36:59.531Z,99084.80
2018-01-18T14:39:26.407Z,99086.92
2018-01-18T14:41:54.313Z,99088.10
2018-01-18T14:44:22.025Z,99096.98
2018-01-18T14:46:49.071Z,99113.33
2018-01-18T14:49:17.859Z,99123.89
2018-01-18T14:51:44.736Z,99121.68
2018-01-18T14:54:12.943Z,99131.43
2018-01-18T14:56:40.535Z,99134.78
2018-01-18T14:59:07.367Z,99144.22
2018-01-18T15:01:34.422Z,99154.34
2018-01-18T15:04:01.242Z,99156.20
2018-01-18T15:06:28.056Z,99164.09
2018-01-18T15:08:54.844Z,99162.50
2018-01-18T15:11:21.899Z,99168.84
2018-01-18T15:13:48.697Z,99183.59
2018-01-18T15:16:15.471Z,99182.28
2018-01-18T15:18:42.333Z,99179.02
2018-01-18T15:21:09.796Z,99188.25
2018-01-18T15:23:37.205Z,99182.19
2018-01-18T15:26:04.002Z,99184.33
2018-01-18T15:28:30.799Z,99192.64
2018-01-18T15:30:57.688Z,99188.50
2018-01-18T15:33:24.622Z,99185.75
2018-01-18T15:35:51.411Z,99181.61
2018-01-18T15:38:18.279Z,99181.92
2018-01-18T15:40:45.932Z,99186.16
2018-01-18T15:43:12.702Z,99187.67
2018-01-18T15:45:39.592Z,99189.53
2018-01-18T15:48:06.399Z,99201.77
2018-01-18T15:50:33.476Z,99199.86
2018-01-18T15:53:01.019Z,99211.30
2018-01-18T15:55:27.789Z,99214.78
2018-01-18T15:57:54.588Z,99214.89
2018-01-18T16:00:21.367Z,99223.73
2018-01-18T16:02:48.129Z,99217.03
2018-01-18T16:05:15.625Z,99218.03
2018-01-18T16:07:42.400Z,99224.40
2018-01-18T16:10:09.230Z,99221.33
2018-01-18T16:12:36.839Z,99227.69
2018-01-18T16:15:03.629Z,99230.49
2018-01-18T16:17:32.440Z,99222.09
2018-01-18T16:20:01.239Z,99230.05
2018-01-18T16:22:28.448Z,99230.73
2018-01-18T16:24:55.946Z,99240.88
2018-01-18T16:27:23.648Z,99244.87
2018-01-18T16:29:50.677Z,99251.53
2018-01-18T16:32:17.533Z,99252.30
2018-01-18T16:34:48.915Z,99260.58
2018-01-18T16:46:59.652Z,99279.33
2018-01-18T16:49:26.551Z,99277.53
2018-01-18T16:51:53.350Z,99278.84
2018-01-18T16:54:21.047Z,99275.11
2018-01-18T16:56:48.769Z,99277.60
2018-01-18T16:59:15.575Z,99287.63
2018-01-18T17:01:42.388Z,99278.25
2018-01-18T17:04:09.322Z,99282.97
2018-01-18T17:06:36.191Z,99286.78
2018-01-18T17:09:03.648Z,99279.31
2018-01-18T17:11:31.444Z,99283.60
2018-01-18T17:13:58.271Z,99276.58
2018-01-18T17:16:25.755Z,99283.15
2018-01-18T17:18:52.542Z,99289.11
2018-01-18T17:21:19.363Z,99293.17
2018-01-18T17:23:46.135Z,99291.16
2018-01-18T17:26:12.888Z,99290.16
2018-01-18T17:28:40.399Z,99288.77
2018-01-18T17:31:07.164Z,99285.67
2018-01-18T17:33:33.964Z,99294.95
2018-01-18T17:36:00.732Z,99295.31
2018-01-18T17:38:28.244Z,99295.25
2018-01-18T17:40:55.031Z,99302.27
2018-01-18T17:43:21.789Z,99308.74
2018-01-18T17:45:48.575Z,99303.28
2018-01-18T17:48:15.366Z,99309.54
2018-01-18T17:50:42.352Z,99310.28
2018-01-18T17:53:09.113Z,99321.58
2018-01-18T17:55:37.786Z,99313.01
2018-01-18T17:58:05.717Z,99308.91
2018-01-18T18:00:32.547Z,99311.65
2018-01-18T18:02:59.384Z,99316.26
2018-01-18T18:05:26.938Z,99309.58
2018-01-18T18:07:53.720Z,99303.65
2018-01-18T18:10:22.116Z,99301.83
2018-01-18T18:12:49.659Z,99300.23
2018-01-18T18:17:50.719Z,99307.44
2018-01-18T18:20:17.487Z,99308.41
2018-01-18T18:22:44.376Z,99303.48
2018-01-18T18:25:11.447Z,99304.05
2018-01-18T18:27:39.041Z,99304.31
2018-01-18T18:30:06.067Z,99312.25
2018-01-18T18:32:33.156Z,99314.35
2018-01-18T18:34:59.946Z,99317.00
2018-01-18T18:37:27.465Z,99312.27
2018-01-18T18:39:54.233Z,99309.15
2018-01-18T18:42:21.009Z,99311.02
2018-01-18T18:44:47.846Z,99308.97
2018-01-18T18:47:16.413Z,99309.72
2018-01-18T18:49:43.937Z,99315.55
2018-01-18T18:52:13.258Z,99318.70
2018-01-18T18:54:42.060Z,99317.51
2018-01-18T18:57:10.458Z,99318.90
2018-01-18T18:59:37.369Z,99316.32
2018-01-18T19:02:04.981Z,99314.66
2018-01-18T19:04:32.379Z,99315.91
2018-01-18T19:06:59.545Z,99313.22
2018-01-18T19:09:26.430Z,99323.80
2018-01-18T19:11:55.957Z,99327.33
2018-01-18T19:14:26.248Z,99332.02
2018-01-18T19:16:54.711Z,99329.43
2018-01-18T19:19:23.372Z,99333.43
2018-01-18T19:21:52.084Z,99331.33
2018-01-18T19:24:20.125Z,99334.16
2018-01-18T19:26:47.612Z,99330.75
2018-01-18T19:29:15.768Z,99332.25
2018-01-18T19:31:44.383Z,99330.41
2018-01-18T19:34:13.008Z,99331.64
2018-01-18T19:36:41.846Z,99332.51
2018-01-18T19:39:10.762Z,99339.15
2018-01-18T19:41:39.581Z,99333.70
2018-01-18T19:44:11.353Z,99328.60
2018-01-18T19:46:43.005Z,99328.98
2018-01-18T19:49:12.763Z,99329.45
2018-01-18T19:51:41.510Z,99332.98
2018-01-18T19:54:10.986Z,99341.34
2018-01-18T19:56:40.111Z,99341.21
2018-01-18T19:59:08.412Z,99348.03
2018-01-18T20:01:38.400Z,99351.52
2018-01-18T20:04:08.538Z,99358.35
2018-01-18T20:06:40.640Z,99351.26
2018-01-18T20:09:09.760Z,99354.02
2018-01-18T20:11:39.650Z,99348.38
2018-01-18T20:14:11.601Z,99348.34
2018-01-18T20:16:41.540Z,99349.22
2018-01-18T20:19:12.188Z,99353.31
2018-01-18T20:21:42.337Z,99356.11
2018-01-18T20:24:14.403Z,99360.07
2018-01-18T20:26:44.657Z,99358.29
2018-01-18T20:29:14.046Z,99358.06
2018-01-18T20:31:42.043Z,99360.23
2018-01-18T20:34:10.966Z,99353.87
2018-01-18T20:36:39.950Z,99355.72
2018-01-18T20:39:08.979Z,99355.29
2018-01-18T20:41:38.943Z,99357.49
2018-01-18T20:44:08.922Z,99356.70
2018-01-18T20:46:38.725Z,99358.02
2018-01-18T20:49:07.554Z,99357.94
2018-01-18T20:51:36.347Z,99355.73
2018-01-18T20:54:05.887Z,99361.90
2018-01-18T20:56:36.900Z,99352.93
2018-01-18T20:59:06.833Z,99346.58
2018-01-18T21:01:36.467Z,99354.71
2018-01-18T21:04:05.681Z,99347.30
2018-01-18T21:06:35.230Z,99348.45
2018-01-18T21:09:04.332Z,99351.67
2018-01-18T21:11:34.441Z,99360.03
2018-01-18T21:14:05.365Z,99364.00
2018-01-18T21:16:33.970Z,99358.91
2018-01-18T21:19:03.976Z,99361.57
2018-01-18T21:21:33.201Z,99362.97
2018-01-18T21:24:01.881Z,99358.78
2018-01-18T21:26:30.920Z,99366.98
2018-01-18T21:28:59.488Z,99356.16
2018-01-18T21:31:28.138Z,99363.56
2018-01-18T21:33:57.761Z,99354.45
2018-01-18T21:36:27.174Z,99364.11
2018-01-18T21:38:56.665Z,99364.06
2018-01-18T21:41:25.025Z,99367.16
2018-01-18T21:43:53.884Z,99365.98
2018-01-18T21:46:23.607Z,99365.02
2018-01-18T21:48:50.843Z,99364.58
2018-01-18T21:51:21.625Z,99362.02
2018-01-18T21:53:48.857Z,99357.95
2018-01-18T21:56:16.071Z,99361.61
2018-01-18T21:58:43.890Z,99361.37
2018-01-18T22:01:12.392Z,99364.41
2018-01-18T22:03:40.202Z,99360.58
2018-01-18T22:06:07.020Z,99360.86
2018-01-18T22:08:33.854Z,99361.29
2018-01-18T22:11:00.634Z,99365.05
2018-01-18T22:13:27.454Z,99370.44
2018-01-18T22:15:54.337Z,99368.06
2018-01-18T22:18:21.216Z,99363.36
2018-01-18T22:23:50.516Z,99364.03
2018-01-18T22:26:17.494Z,99368.97
2018-01-18T22:31:17.043Z,99365.53
2018-01-18T22:33:43.901Z,99363.32
2018-01-18T22:36:10.820Z,99369.66
2018-01-18T22:38:38.171Z,99365.80
2018-01-18T22:41:05.443Z,99371.54
2018-01-18T22:43:32.326Z,99370.05
2018-01-18T22:45:59.255Z,99375.98
2018-01-18T22:48:27.149Z,99368.79
2018-01-18T22:50:54.040Z,99371.41
2018-01-18T22:53:20.989Z,99377.48
2018-01-18T22:55:48.166Z,99372.19
2018-01-18T22:58:15.056Z,99365.67
2018-01-18T23:00:43.464Z,99381.83
2018-01-18T23:03:10.375Z,99377.67
2018-01-18T23:05:37.246Z,99377.14
2018-01-18T23:08:04.474Z,99377.06
2018-01-18T23:10:31.481Z,99378.27
2018-01-18T23:12:58.512Z,99377.19
2018-01-18T23:15:26.294Z,99381.51
2018-01-18T23:17:53.184Z,99388.02
2018-01-18T23:20:19.991Z,99384.45
2018-01-18T23:22:46.884Z,99381.16
2018-01-18T23:25:13.722Z,99382.38
2018-01-18T23:27:40.638Z,99379.93
2018-01-18T23:30:08.433Z,99380.09
2018-01-18T23:32:35.408Z,99381.88
2018-01-18T23:35:02.974Z,99380.17
2018-01-18T23:37:29.880Z,99377.90
2018-01-18T23:39:56.726Z,99377.81
2018-01-18T23:42:23.591Z,99374.09
2018-01-18T23:44:50.429Z,99378.98
2018-01-18T23:47:17.280Z,99381.25
2018-01-18T23:49:44.202Z,99378.61
2018-01-18T23:52:11.025Z,99388.48
2018-01-18T23:54:37.907Z,99379.14
2018-01-18T23:57:04.735Z,99382.46
2018-01-18T23:59:32.415Z,99384.27
